Map

Track Data

SID SEASON NUMBER BASIN SUBBASIN NAME ISO_TIME NATURE LAT LON WMO_WIND WMO_PRES WMO_AGENCY TRACK_TYPE DIST2LAND LANDFALL IFLAG USA_AGENCY USA_ATCF_ID USA_LAT USA_LON USA_RECORD USA_STATUS USA_WIND USA_PRES USA_SSHS USA_R34_NE USA_R34_SE USA_R34_SW USA_R34_NW USA_R50_NE USA_R50_SE USA_R50_SW USA_R50_NW USA_R64_NE USA_R64_SE USA_R64_SW USA_R64_NW USA_POCI USA_ROCI USA_RMW USA_EYE TOKYO_LAT TOKYO_LON TOKYO_GRADE TOKYO_WIND TOKYO_PRES TOKYO_R50_DIR TOKYO_R50_LONG TOKYO_R50_SHORT TOKYO_R30_DIR TOKYO_R30_LONG TOKYO_R30_SHORT TOKYO_LAND CMA_LAT CMA_LON CMA_CAT CMA_WIND CMA_PRES HKO_LAT HKO_LON HKO_CAT HKO_WIND HKO_PRES NEWDELHI_LAT NEWDELHI_LON NEWDELHI_GRADE NEWDELHI_WIND NEWDELHI_PRES NEWDELHI_CI NEWDELHI_DP NEWDELHI_POCI REUNION_LAT REUNION_LON REUNION_TYPE REUNION_WIND REUNION_PRES REUNION_TNUM REUNION_CI REUNION_RMW REUNION_R34_NE REUNION_R34_SE REUNION_R34_SW REUNION_R34_NW REUNION_R50_NE REUNION_R50_SE REUNION_R50_SW REUNION_R50_NW REUNION_R64_NE REUNION_R64_SE REUNION_R64_SW REUNION_R64_NW BOM_LAT BOM_LON BOM_TYPE BOM_WIND BOM_PRES BOM_TNUM BOM_CI BOM_RMW BOM_R34_NE BOM_R34_SE BOM_R34_SW BOM_R34_NW BOM_R50_NE BOM_R50_SE BOM_R50_SW BOM_R50_NW BOM_R64_NE BOM_R64_SE BOM_R64_SW BOM_R64_NW BOM_ROCI BOM_POCI BOM_EYE BOM_POS_METHOD BOM_PRES_METHOD NADI_LAT NADI_LON NADI_CAT NADI_WIND NADI_PRES WELLINGTON_LAT WELLINGTON_LON WELLINGTON_WIND WELLINGTON_PRES DS824_LAT DS824_LON DS824_STAGE DS824_WIND DS824_PRES TD9636_LAT TD9636_LON TD9636_STAGE TD9636_WIND TD9636_PRES TD9635_LAT TD9635_LON TD9635_WIND TD9635_PRES TD9635_ROCI NEUMANN_LAT NEUMANN_LON NEUMANN_CLASS NEUMANN_WIND NEUMANN_PRES MLC_LAT MLC_LON MLC_CLASS MLC_WIND MLC_PRES USA_GUST BOM_GUST BOM_GUST_PER REUNION_GUST REUNION_GUST_PER USA_SEAHGT USA_SEARAD_NE USA_SEARAD_SE USA_SEARAD_SW USA_SEARAD_NW STORM_SPEED STORM_DIR
1935259N17144 1935 51 WP MM NOT_NAMED 1935-09-15 21:00:00 NR 17.0000 144.000 main 2007 1967 __________O___ -1 17.0000 144.000 7 7 329
1935259N17144 1935 51 WP MM NOT_NAMED 1935-09-16 00:00:00 NR 17.3122 143.805 main 1967 1928 __________P___ -1 17.3122 143.805 7 7 327
1935259N17144 1935 51 WP MM NOT_NAMED 1935-09-16 03:00:00 NR 17.5995 143.588 main 1928 1896 __________P___ -1 17.5995 143.588 7 7 319
1935259N17144 1935 51 WP MM NOT_NAMED 1935-09-16 06:00:00 NR 17.8371 143.327 main 1896 1863 __________P___ -1 17.8371 143.327 7 7 306
1935259N17144 1935 51 WP MM NOT_NAMED 1935-09-16 09:00:00 NR 18.0000 143.000 main 1863 1838 __________O___ -1 18.0000 143.000 7 7 289
1935259N17144 1935 51 WP MM NOT_NAMED 1935-09-16 12:00:00 NR 18.0740 142.596 main 1838 1823 __________P___ -1 18.0740 142.596 7 8 276
1935259N17144 1935 51 WP MM NOT_NAMED 1935-09-16 15:00:00 NR 18.0883 142.149 main 1820 1807 __________P___ -1 18.0883 142.149 7 9 271
1935259N17144 1935 51 WP MM NOT_NAMED 1935-09-16 18:00:00 NR 18.0834 141.702 main 1807 1788 __________P___ -1 18.0834 141.702 7 8 271
1935259N17144 1935 51 WP MM NOT_NAMED 1935-09-16 21:00:00 NR 18.1000 141.300 main 1788 1762 __________O___ -1 18.1000 141.300 7 7 278
1935259N17144 1935 51 WP MM NOT_NAMED 1935-09-17 00:00:00 NR 18.1713 141.004 main 1762 1741 __________P___ -1 18.1713 141.004 7 5 289
1935259N17144 1935 51 WP MM NOT_NAMED 1935-09-17 03:00:00 NR 18.2743 140.755 main 1741 1715 __________P___ -1 18.2743 140.755 7 5 298
1935259N17144 1935 51 WP MM NOT_NAMED 1935-09-17 06:00:00 NR 18.4152 140.528 main 1715 1685 __________P___ -1 18.4152 140.528 7 5 307
1935259N17144 1935 51 WP MM NOT_NAMED 1935-09-17 09:00:00 NR 18.6000 140.300 main 1685 1656 __________O___ -1 18.6000 140.300 7 6 314
1935259N17144 1935 51 WP MM NOT_NAMED 1935-09-17 12:00:00 NR 18.8643 140.037 main 1641 1611 __________P___ -1 18.8643 140.037 7 8 318
1935259N17144 1935 51 WP MM NOT_NAMED 1935-09-17 15:00:00 NR 19.1648 139.766 main 1601 1566 __________P___ -1 19.1648 139.766 7 8 319
1935259N17144 1935 51 WP MM NOT_NAMED 1935-09-17 18:00:00 NR 19.4580 139.487 main 1556 1521 __________P___ -1 19.4580 139.487 7 8 315
1935259N17144 1935 51 WP MM NOT_NAMED 1935-09-17 21:00:00 NR 19.7000 139.200 main 1521 1501 __________O___ -1 19.7000 139.200 7 6 307
1935259N17144 1935 51 WP MM NOT_NAMED 1935-09-18 00:00:00 NR 19.8441 138.939 main 1496 1475 __________P___ -1 19.8441 138.939 7 6 295
1935259N17144 1935 51 WP MM NOT_NAMED 1935-09-18 03:00:00 NR 19.9316 138.667 main 1475 1450 __________P___ -1 19.9316 138.667 7 6 284
1935259N17144 1935 51 WP MM NOT_NAMED 1935-09-18 06:00:00 NR 19.9783 138.361 main 1450 1429 __________P___ -1 19.9783 138.361 7 6 276
1935259N17144 1935 51 WP MM NOT_NAMED 1935-09-18 09:00:00 NR 20.0000 138.000 main 1429 1404 __________O___ -1 20.0000 138.000 7 8 273
1935259N17144 1935 51 WP MM NOT_NAMED 1935-09-18 12:00:00 NR 20.0224 137.521 main 1404 1380 __________P___ -1 20.0224 137.521 7 9 271
1935259N17144 1935 51 WP MM NOT_NAMED 1935-09-18 15:00:00 NR 20.0238 136.992 main 1380 1358 __________P___ -1 20.0238 136.992 7 10 269
1935259N17144 1935 51 WP MM NOT_NAMED 1935-09-18 18:00:00 NR 20.0131 136.468 main 1358 1338 __________P___ -1 20.0131 136.468 7 9 269
1935259N17144 1935 51 WP MM NOT_NAMED 1935-09-18 21:00:00 NR 20.0000 136.000 main 1338 1326 __________O___ -1 20.0000 136.000 7 7 268
1935259N17144 1935 51 WP MM NOT_NAMED 1935-09-19 00:00:00 NR 19.9904 135.709 main 1326 1319 __________P___ -1 19.9904 135.709 7 5 268
1935259N17144 1935 51 WP MM NOT_NAMED 1935-09-19 03:00:00 NR 19.9829 135.472 main 1319 1308 __________P___ -1 19.9829 135.472 7 5 269
1935259N17144 1935 51 WP MM NOT_NAMED 1935-09-19 06:00:00 NR 19.9841 135.224 main 1308 1298 __________P___ -1 19.9841 135.224 7 5 272
1935259N17144 1935 51 WP MM NOT_NAMED 1935-09-19 09:00:00 NR 20.0000 134.900 main 1298 1263 __________O___ -1 20.0000 134.900 7 8 275
1935259N17144 1935 51 WP MM NOT_NAMED 1935-09-19 12:00:00 NR 20.0486 134.400 main 1263 1225 __________P___ -1 20.0486 134.400 7 10 276
1935259N17144 1935 51 WP MM NOT_NAMED 1935-09-19 15:00:00 NR 20.1086 133.818 main 1216 1161 __________P___ -1 20.1086 133.818 7 11 276
1935259N17144 1935 51 WP MM NOT_NAMED 1935-09-19 18:00:00 NR 20.1642 133.203 main 1161 1099 __________P___ -1 20.1642 133.203 7 11 275
1935259N17144 1935 51 WP MM NOT_NAMED 1935-09-19 21:00:00 NR 20.2000 132.600 main 1099 1047 __________O___ -1 20.2000 132.600 7 11 270
1935259N17144 1935 51 WP MM NOT_NAMED 1935-09-20 00:00:00 NR 20.1677 132.057 main 1047 994 __________P___ -1 20.1677 132.057 7 10 265
1935259N17144 1935 51 WP MM NOT_NAMED 1935-09-20 03:00:00 NR 20.1196 131.539 main 984 943 __________P___ -1 20.1196 131.539 7 9 265
1935259N17144 1935 51 WP MM NOT_NAMED 1935-09-20 06:00:00 NR 20.0867 131.051 main 943 891 __________P___ -1 20.0867 131.051 7 9 269
1935259N17144 1935 51 WP MM NOT_NAMED 1935-09-20 09:00:00 NR 20.1000 130.600 main 891 853 __________O___ -1 20.1000 130.600 7 8 278
1935259N17144 1935 51 WP MM NOT_NAMED 1935-09-20 12:00:00 NR 20.1992 130.173 main 853 814 __________P___ -1 20.1992 130.173 7 8 288
1935259N17144 1935 51 WP MM NOT_NAMED 1935-09-20 15:00:00 NR 20.3470 129.783 main 814 780 __________P___ -1 20.3470 129.783 7 8 295
1935259N17144 1935 51 WP MM NOT_NAMED 1935-09-20 18:00:00 NR 20.5213 129.426 main 780 757 __________P___ -1 20.5213 129.426 7 7 299
1935259N17144 1935 51 WP MM NOT_NAMED 1935-09-20 21:00:00 NR 20.7000 129.100 main 757 722 __________O___ -1 20.7000 129.100 7 7 292
1935259N17144 1935 51 WP MM NOT_NAMED 1935-09-21 00:00:00 NR 20.7891 128.707 main 722 697 __________P___ -1 20.7891 128.707 7 7 285
1935259N17144 1935 51 WP MM NOT_NAMED 1935-09-21 03:00:00 NR 20.8875 128.356 main 697 673 __________P___ -1 20.8875 128.356 7 6 294
1935259N17144 1935 51 WP MM NOT_NAMED 1935-09-21 06:00:00 NR 21.0420 128.102 main 673 668 __________P___ -1 21.0420 128.102 7 5 321
1935259N17144 1935 51 WP MM NOT_NAMED 1935-09-21 09:00:00 NR 21.3000 128.000 main 678 678 __________O___ -1 21.3000 128.000 7 7 0
1935259N17144 1935 51 WP MM NOT_NAMED 1935-09-21 12:00:00 NR 21.7783 128.126 main 701 696 __________P___ -1 21.7783 128.126 7 11 20
1935259N17144 1935 51 WP MM NOT_NAMED 1935-09-21 15:00:00 NR 22.3506 128.404 main 702 702 __________P___ -1 22.3506 128.404 7 13 27
1935259N17144 1935 51 WP MM NOT_NAMED 1935-09-21 18:00:00 NR 22.9224 128.754 main 724 721 __________P___ -1 22.9224 128.754 7 12 31
1935259N17144 1935 51 WP MM NOT_NAMED 1935-09-21 21:00:00 NR 23.4000 129.100 main 741 738 __________O___ -1 23.4000 129.100 7 8 35
1935259N17144 1935 51 WP MM NOT_NAMED 1935-09-22 00:00:00 NR 23.6000 129.276 main 755 753 __________P___ -1 23.6000 129.276 7 4 45
1935259N17144 1935 51 WP MM NOT_NAMED 1935-09-22 03:00:00 NR 23.7061 129.437 main 763 763 __________P___ -1 23.7061 129.437 7 4 57
1935259N17144 1935 51 WP MM NOT_NAMED 1935-09-22 06:00:00 NR 23.8092 129.629 main 780 780 __________P___ -1 23.8092 129.629 7 5 55
1935259N17144 1935 51 WP MM NOT_NAMED 1935-09-22 09:00:00 NR 24.0000 129.900 main 785 738 __________O___ -1 24.0000 129.900 7 9 47
1935259N17144 1935 51 WP MM NOT_NAMED 1935-09-22 12:00:00 NR 24.4084 130.324 main 738 681 __________P___ -1 24.4084 130.324 7 12 43
1935259N17144 1935 51 WP MM NOT_NAMED 1935-09-22 15:00:00 NR 24.9113 130.830 main 681 627 __________P___ -1 24.9113 130.830 7 14 42
1935259N17144 1935 51 WP MM NOT_NAMED 1935-09-22 18:00:00 NR 25.4584 131.371 main 617 570 __________P___ -1 25.4584 131.371 7 15 42
1935259N17144 1935 51 WP MM NOT_NAMED 1935-09-22 21:00:00 NR 26.0000 131.900 main 570 539 __________O___ -1 26.0000 131.900 7 14 45
1935259N17144 1935 51 WP MM NOT_NAMED 1935-09-23 00:00:00 NR 26.4161 132.447 main 539 515 __________P___ -1 26.4161 132.447 7 13 49
1935259N17144 1935 51 WP MM NOT_NAMED 1935-09-23 03:00:00 NR 26.8257 132.957 main 519 493 __________P___ -1 26.8257 132.957 7 12 44
1935259N17144 1935 51 WP MM NOT_NAMED 1935-09-23 06:00:00 NR 27.2723 133.364 main 488 454 __________P___ -1 27.2723 133.364 7 11 30
1935259N17144 1935 51 WP MM NOT_NAMED 1935-09-23 09:00:00 NR 27.8000 133.600 main 454 386 __________O___ -1 27.8000 133.600 7 13 9
1935259N17144 1935 51 WP MM NOT_NAMED 1935-09-23 12:00:00 NR 28.5444 133.585 main 386 302 __________P___ -1 28.5444 133.585 7 16 353
1935259N17144 1935 51 WP MM NOT_NAMED 1935-09-23 15:00:00 NR 29.3597 133.395 main 294 217 __________P___ -1 29.3597 133.395 7 17 345
1935259N17144 1935 51 WP MM NOT_NAMED 1935-09-23 18:00:00 NR 30.1451 133.107 main 217 148 __________P___ -1 30.1451 133.107 7 15 340
1935259N17144 1935 51 WP MM NOT_NAMED 1935-09-23 21:00:00 NR 30.8000 132.800 main 148 109 __________O___ -1 30.8000 132.800 7 11 332
1935259N17144 1935 51 WP MM NOT_NAMED 1935-09-24 00:00:00 NR 31.0882 132.512 main 109 88 __________P___ -1 31.0882 132.512 7 7 313
1935259N17144 1935 51 WP MM NOT_NAMED 1935-09-24 03:00:00 NR 31.2549 132.238 main 76 66 __________P___ -1 31.2549 132.238 7 5 312
1935259N17144 1935 51 WP MM NOT_NAMED 1935-09-24 06:00:00 NR 31.4441 132.045 main 56 47 __________P___ -1 31.4441 132.045 7 6 340
1935259N17144 1935 51 WP MM NOT_NAMED 1935-09-24 09:00:00 NR 31.8000 132.000 main 47 29 __________O___ -1 31.8000 132.000 7 11 4
1935259N17144 1935 51 WP MM NOT_NAMED 1935-09-24 12:00:00 NR 32.5000 132.125 main 29 0 __________P___ -1 32.5000 132.125 7 16 12
1935259N17144 1935 51 WP MM NOT_NAMED 1935-09-24 15:00:00 NR 33.3810 132.412 main 0 0 __________P___ -1 33.3810 132.412 7 20 18
1935259N17144 1935 51 WP MM NOT_NAMED 1935-09-24 18:00:00 NR 34.3715 132.843 main 0 0 __________P___ -1 34.3715 132.843 7 22 22
1935259N17144 1935 51 WP MM NOT_NAMED 1935-09-24 21:00:00 NR 35.4000 133.400 main 0 0 __________O___ -1 35.4000 133.400 7 22 27
1935259N17144 1935 51 WP MM NOT_NAMED 1935-09-25 00:00:00 NR 36.3395 134.063 main 82 82 __________P___ -1 36.3395 134.063 7 22 31
1935259N17144 1935 51 WP MM NOT_NAMED 1935-09-25 03:00:00 NR 37.3009 134.843 main 160 134 __________P___ -1 37.3009 134.843 7 23 33
1935259N17144 1935 51 WP MM NOT_NAMED 1935-09-25 06:00:00 NR 38.2864 135.678 main 139 139 __________P___ -1 38.2864 135.678 7 24 33
1935259N17144 1935 51 WP MM NOT_NAMED 1935-09-25 09:00:00 NR 39.3000 136.500 main 213 213 __________O___ -1 39.3000 136.500 7 24 31
1935259N17144 1935 51 WP MM NOT_NAMED 1935-09-25 12:00:00 NR 40.3453 137.258 main 208 174 __________P___ -1 40.3453 137.258 7 24 28
1935259N17144 1935 51 WP MM NOT_NAMED 1935-09-25 15:00:00 NR 41.4168 137.960 main 166 98 __________P___ -1 41.4168 137.960 7 24 26
1935259N17144 1935 51 WP MM NOT_NAMED 1935-09-25 18:00:00 NR 42.5052 138.632 main 98 80 __________P___ -1 42.5052 138.632 7 24 24
1935259N17144 1935 51 WP MM NOT_NAMED 1935-09-25 21:00:00 NR 43.6000 139.300 main 87 __________O___ -1 43.6000 139.300 7 24 24

Digital Typhoon Data and Search

About IBTrACS Database

This database is a web-friendly format of International Best Track Archive for Climate Stewardship (IBTrACS), a global best track data archive curated by NOAA dating back to 1842.

Updated: 2021-12-06